Time;durP1;ratioP1;P1;durP2;ratioP2;P2;SDS_P1;SDS_P2;PMS_P1;PMS_P2;Temp;Humidity;BMP_temperature;BMP_pressure;BME280_temperature;BME280_humidity;BME280_pressure;Samples;Min_cycle;Max_cycle;Signal;HPM_P1;HPM_P2
2023/10/07 00:01:01;;;;;;;5.00;1.90;;;;;;;12.19;87.35;99484.22;4484302;31;20110;-76
2023/10/07 00:03:29;;;;;;;6.45;2.33;;;;;;;12.22;87.39;99483.97;4484262;31;20457;-76
2023/10/07 00:06:00;;;;;;;6.40;2.20;;;;;;;12.21;87.59;99471.78;4484192;31;20120;-76
2023/10/07 00:08:28;;;;;;;10.55;2.40;;;;;;;12.31;86.87;99471.81;4484473;31;20092;-76
2023/10/07 00:11:00;;;;;;;15.32;2.70;;;;;;;12.27;87.17;99468.63;4484131;31;20096;-76
2023/10/07 00:13:31;;;;;;;5.95;2.55;;;;;;;12.28;87.29;99472.06;4484245;32;20085;-76
2023/10/07 00:16:00;;;;;;;6.80;2.58;;;;;;;12.27;87.91;99459.94;4477640;31;20100;-76
2023/10/07 00:18:28;;;;;;;9.98;2.97;;;;;;;12.34;87.83;99461.03;4468636;32;20089;-76
2023/10/07 00:20:56;;;;;;;5.90;2.45;;;;;;;12.40;87.62;99450.03;4468527;32;20104;-76
2023/10/07 00:23:28;;;;;;;8.05;3.03;;;;;;;12.45;87.87;99452.25;4468391;32;20107;-76
2023/10/07 00:26:00;;;;;;;6.78;2.37;;;;;;;12.49;87.89;99456.28;4468356;32;20148;-76
2023/10/07 00:28:32;;;;;;;6.50;2.62;;;;;;;12.54;87.55;99444.41;4468954;32;20115;-76
2023/10/07 00:31:12;;;;;;;6.28;2.40;;;;;;;12.44;88.31;99446.16;4468529;32;20081;-76
2023/10/07 00:33:57;;;;;;;8.15;2.30;;;;;;;12.43;88.70;99450.59;4468355;32;20111;-76
2023/10/07 00:36:43;;;;;;;;;;;;;;;12.41;89.34;99456.94;4468556;32;20616;-76
2023/10/07 00:39:20;;;;;;;8.63;2.42;;;;;;;12.35;90.30;99446.94;4468619;32;20329;-76
2023/10/07 00:41:50;;;;;;;4.43;2.35;;;;;;;12.28;91.22;99441.41;4468526;32;20168;-76
2023/10/07 00:44:31;;;;;;;8.90;2.85;;;;;;;12.16;92.60;99435.41;4467866;32;20137;-76
2023/10/07 00:47:22;;;;;;;5.93;2.53;;;;;;;12.07;93.41;99434.38;4468255;32;20093;-76
2023/10/07 00:53:06;;;;;;;4.47;2.05;;;;;;;11.96;94.43;99420.50;4467961;32;20149;-76
2023/10/07 00:55:18;;;;;;;6.28;2.92;;;;;;;11.88;95.17;99415.84;4461864;32;20450;-76
2023/10/07 00:58:03;;;;;;;8.98;2.87;;;;;;;11.83;96.01;99416.25;4467977;32;20093;-76
2023/10/07 01:03:13;;;;;;;9.40;2.50;;;;;;;11.83;95.66;99411.00;4466545;32;20104;-76
2023/10/07 01:08:34;;;;;;;8.70;2.92;;;;;;;11.96;94.56;99396.84;4470201;32;20649;-76
2023/10/07 01:13:50;;;;;;;12.48;2.67;;;;;;;11.88;95.05;99400.97;4470207;32;20006;-76
2023/10/07 01:16:27;;;;;;;7.15;2.70;;;;;;;11.87;95.43;99396.66;4478528;32;20141;-76
2023/10/07 01:19:18;;;;;;;6.45;2.70;;;;;;;11.85;95.80;99395.97;4485980;31;20116;-76
2023/10/07 01:21:54;;;;;;;6.95;3.10;;;;;;;11.80;96.82;99394.69;4485929;32;20080;-76
2023/10/07 01:29:59;;;;;;;10.93;3.30;;;;;;;11.80;97.40;99384.19;4485772;31;20179;-76
2023/10/07 01:32:35;;;;;;;10.73;3.05;;;;;;;11.80;98.71;99377.13;4485693;31;20093;-76
2023/10/07 01:35:10;;;;;;;10.10;3.47;;;;;;;11.81;98.82;99373.56;4485560;31;20394;-76
2023/10/07 01:37:43;;;;;;;9.85;3.40;;;;;;;11.92;98.67;99371.81;4485927;31;20095;-76
2023/10/07 01:40:17;;;;;;;7.07;3.70;;;;;;;11.90;99.72;99377.19;4485629;31;20111;-76
2023/10/07 01:42:45;;;;;;;9.30;3.58;;;;;;;11.80;100.00;99368.44;4485494;31;20198;-76
2023/10/07 01:45:22;;;;;;;8.18;3.55;;;;;;;11.91;100.00;99370.97;4485390;31;20100;-76
2023/10/07 01:47:54;;;;;;;8.93;3.67;;;;;;;11.93;100.00;99371.72;4485522;31;20133;-76
2023/10/07 01:50:23;;;;;;;10.90;3.70;;;;;;;11.98;100.00;99371.31;4485571;32;20085;-76
2023/10/07 01:52:55;;;;;;;12.57;4.03;;;;;;;11.96;100.00;99370.59;4483930;31;20462;-76
2023/10/07 01:55:27;;;;;;;10.80;3.53;;;;;;;11.93;100.00;99363.00;4469632;32;20110;-76
2023/10/07 01:57:56;;;;;;;17.27;4.32;;;;;;;11.95;100.00;99361.09;4469624;32;20157;-76
2023/10/07 02:03:26;;;;;;;11.07;3.65;;;;;;;12.06;100.00;99361.81;4451547;32;20645;-76
2023/10/07 02:05:54;;;;;;;11.12;3.83;;;;;;;12.12;100.00;99357.81;4451625;32;20639;-76
2023/10/07 02:08:23;;;;;;;9.88;3.30;;;;;;;12.09;100.00;99352.00;4451508;32;20177;-76
2023/10/07 02:10:52;;;;;;;12.73;3.92;;;;;;;12.01;100.00;99356.13;4451546;32;20255;-76
2023/10/07 02:13:20;;;;;;;7.97;3.35;;;;;;;12.00;100.00;99361.50;4451433;32;20138;-76
2023/10/07 02:15:52;;;;;;;10.15;3.37;;;;;;;11.99;100.00;99358.06;4456495;32;20101;-76
2023/10/07 02:18:21;;;;;;;15.63;3.67;;;;;;;11.98;100.00;99360.81;4466108;32;20093;-76
2023/10/07 02:20:52;;;;;;;9.38;3.80;;;;;;;12.07;100.00;99349.53;4466920;32;20139;-76
2023/10/07 02:23:28;;;;;;;7.15;4.07;;;;;;;12.03;100.00;99345.50;4466926;32;20128;-76
2023/10/07 02:25:58;;;;;;;8.55;4.00;;;;;;;12.06;100.00;99342.59;4466933;32;20146;-76
2023/10/07 02:28:32;;;;;;;6.95;3.92;;;;;;;11.94;100.00;99344.47;4466831;32;20132;-76
2023/10/07 02:31:08;;;;;;;11.45;3.65;;;;;;;11.96;100.00;99345.19;4467329;32;20113;-76
2023/10/07 02:33:51;;;;;;;9.90;3.47;;;;;;;12.03;100.00;99340.22;4454749;32;20477;-76
2023/10/07 02:39:18;;;;;;;14.45;4.15;;;;;;;11.90;100.00;99338.63;4485348;31;20087;-76
2023/10/07 02:41:47;;;;;;;7.12;3.42;;;;;;;11.95;100.00;99334.81;4485157;31;20136;-76
2023/10/07 02:44:25;;;;;;;11.27;3.72;;;;;;;12.02;100.00;99325.44;4485172;31;20479;-76
2023/10/07 02:46:54;;;;;;;6.95;3.22;;;;;;;11.99;100.00;99330.94;4485051;31;20089;-76
2023/10/07 02:49:21;;;;;;;7.57;3.60;;;;;;;12.02;100.00;99328.06;4485167;31;20088;-76
2023/10/07 02:52:00;;;;;;;14.30;4.45;;;;;;;11.95;100.00;99322.50;4485080;31;20108;-76
2023/10/07 02:54:34;;;;;;;7.82;3.75;;;;;;;11.92;100.00;99333.25;4473210;31;20127;-76
2023/10/07 02:57:22;;;;;;;11.35;4.47;;;;;;;11.91;100.00;99321.06;4469356;32;20085;-76
2023/10/07 02:59:51;;;;;;;10.52;4.15;;;;;;;11.92;100.00;99319.31;4469438;32;20089;-76
2023/10/07 03:02:21;;;;;;;11.95;4.30;;;;;;;11.87;100.00;99311.81;4469268;32;20560;-76
2023/10/07 03:04:58;;;;;;;9.98;4.80;;;;;;;11.85;100.00;99311.97;4469356;32;20522;-76
2023/10/07 03:07:26;;;;;;;10.30;4.40;;;;;;;11.89;100.00;99315.97;4469256;32;20147;-76
2023/10/07 03:10:16;;;;;;;14.43;4.87;;;;;;;11.84;100.00;99312.91;4469154;32;20108;-76
2023/10/07 03:12:48;;;;;;;9.32;4.55;;;;;;;11.86;100.00;99318.84;4469108;32;20149;-76
2023/10/07 03:15:39;;;;;;;11.98;4.93;;;;;;;11.85;100.00;99309.34;4471065;32;20548;-76
2023/10/07 03:18:21;;;;;;;9.68;4.20;;;;;;;11.86;100.00;99310.16;4484800;32;20107;-76
2023/10/07 03:21:00;;;;;;;12.77;5.72;;;;;;;11.99;100.00;99321.28;4484745;31;20080;-76
2023/10/07 03:23:34;;;;;;;11.32;4.93;;;;;;;11.98;100.00;99317.00;4484849;31;20473;-76
2023/10/07 03:28:36;;;;;;;10.48;4.45;;;;;;;12.09;100.00;99302.94;4484512;31;20221;-76
2023/10/07 03:31:18;;;;;;;10.63;4.22;;;;;;;12.11;100.00;99300.16;4484884;31;20084;-76
2023/10/07 03:33:54;;;;;;;11.38;4.70;;;;;;;12.10;100.00;99307.22;4484693;32;20144;-76
2023/10/07 03:39:09;;;;;;;11.05;4.80;;;;;;;11.94;100.00;99309.53;4484605;31;20137;-76
2023/10/07 03:41:47;;;;;;;16.52;5.37;;;;;;;11.90;100.00;99303.69;4485152;31;20112;-76
2023/10/07 03:44:22;;;;;;;12.60;4.75;;;;;;;11.85;100.00;99305.84;4484537;31;20405;-77
2023/10/07 03:46:57;;;;;;;12.63;5.43;;;;;;;11.85;100.00;99304.09;4484743;31;20100;-76
2023/10/07 03:49:33;;;;;;;11.68;4.93;;;;;;;11.92;100.00;99306.19;4484492;31;20080;-76
2023/10/07 03:52:07;;;;;;;14.45;5.60;;;;;;;11.92;100.00;99307.00;4484688;31;20088;-77
2023/10/07 03:54:35;;;;;;;9.65;4.90;;;;;;;11.88;100.00;99308.22;4471818;31;20149;-76
2023/10/07 03:57:03;;;;;;;12.07;4.72;;;;;;;11.95;100.00;99306.75;4468862;32;20173;-76
2023/10/07 03:59:32;;;;;;;7.97;4.35;;;;;;;11.97;100.00;99307.44;4468739;32;20096;-76
2023/10/07 04:05:10;;;;;;;10.20;4.95;;;;;;;11.82;100.00;99303.50;4468394;32;20470;-76
2023/10/07 04:07:39;;;;;;;11.73;5.00;;;;;;;11.89;100.00;99294.13;4468670;32;20476;-76
2023/10/07 04:12:49;;;;;;;13.05;5.30;;;;;;;11.72;100.00;99293.78;4468829;32;20088;-76
2023/10/07 04:15:18;;;;;;;13.77;5.32;;;;;;;11.66;100.00;99298.75;4470476;32;20097;-76
2023/10/07 04:17:46;;;;;;;12.90;5.20;;;;;;;11.66;100.00;99288.25;4484284;31;20089;-76
2023/10/07 04:20:24;;;;;;;15.07;5.03;;;;;;;11.66;100.00;99293.50;4484030;31;20136;-76
2023/10/07 04:23:00;;;;;;;14.35;5.45;;;;;;;11.59;100.00;99294.97;4483094;32;20115;-76
2023/10/07 04:25:31;;;;;;;13.55;4.80;;;;;;;11.45;100.00;99290.91;4483957;31;20164;-76
2023/10/07 04:28:06;;;;;;;16.30;6.20;;;;;;;11.44;100.00;99284.81;4484185;32;20146;-76
2023/10/07 04:30:46;;;;;;;12.85;5.43;;;;;;;11.45;100.00;99283.03;4483979;31;20487;-76
2023/10/07 04:33:17;;;;;;;11.30;5.35;;;;;;;11.43;100.00;99290.19;4483994;31;20096;-76
2023/10/07 04:35:50;;;;;;;21.45;5.50;;;;;;;11.34;100.00;99278.69;4483825;31;20148;-76
2023/10/07 04:41:30;;;;;;;11.60;5.18;;;;;;;11.42;100.00;99275.41;4484313;32;20149;-76
2023/10/07 04:46:22;;;;;;;13.52;4.80;;;;;;;11.43;100.00;99285.78;4485830;31;20488;-76
2023/10/07 04:48:59;;;;;;;11.88;5.28;;;;;;;11.51;100.00;99282.50;4485908;31;20476;-76
2023/10/07 04:53:59;;;;;;;8.70;5.20;;;;;;;11.47;100.00;99283.72;4477230;31;20172;-76
2023/10/07 04:56:27;;;;;;;15.75;5.85;;;;;;;11.50;100.00;99286.91;4469977;32;20158;-76
2023/10/07 04:58:55;;;;;;;13.70;4.95;;;;;;;11.52;100.00;99285.00;4470178;32;20596;-76
2023/10/07 05:01:30;;;;;;;11.57;5.22;;;;;;;11.52;100.00;99282.38;4470208;32;20507;-76
2023/10/07 05:04:04;;;;;;;10.52;5.70;;;;;;;11.58;100.00;99280.19;4470088;32;20081;-76
2023/10/07 05:06:34;;;;;;;16.23;5.17;;;;;;;11.60;100.00;99273.03;4470065;32;20127;-76
2023/10/07 05:09:09;;;;;;;10.38;5.55;;;;;;;11.67;100.00;99284.63;4470333;32;20881;-76
2023/10/07 05:11:43;;;;;;;16.73;5.65;;;;;;;11.72;100.00;99285.09;4470214;32;20886;-76
2023/10/07 05:14:10;;;;;;;11.55;5.75;;;;;;;11.79;100.00;99288.00;4470013;32;20374;-76
2023/10/07 05:16:39;;;;;;;11.00;5.45;;;;;;;11.90;100.00;99283.50;4480752;32;20620;-76
2023/10/07 05:19:10;;;;;;;13.32;6.07;;;;;;;11.97;100.00;99275.13;4485521;31;20524;-76
2023/10/07 05:21:37;;;;;;;12.85;5.97;;;;;;;12.01;100.00;99276.53;4485609;31;20084;-76
2023/10/07 05:24:09;;;;;;;9.02;5.12;;;;;;;12.15;100.00;99273.50;4485524;31;20096;-76
2023/10/07 05:26:40;;;;;;;16.02;5.72;;;;;;;12.37;100.00;99272.44;4485736;31;20144;-76
2023/10/07 05:29:12;;;;;;;9.57;4.90;;;;;;;12.48;100.00;99273.31;4485662;31;20080;-76
2023/10/07 05:31:42;;;;;;;11.27;5.05;;;;;;;12.52;100.00;99278.16;4485714;32;20195;-76
2023/10/07 05:34:10;;;;;;;8.77;5.07;;;;;;;12.72;100.00;99270.28;4485374;31;20465;-76
2023/10/07 05:36:38;;;;;;;14.68;5.57;;;;;;;12.84;100.00;99271.78;4485578;31;20144;-76
2023/10/07 05:39:08;;;;;;;12.40;5.32;;;;;;;13.06;100.00;99273.28;4485560;31;20100;-76
2023/10/07 05:41:39;;;;;;;14.87;5.60;;;;;;;13.25;100.00;99274.22;4485615;31;20089;-76
2023/10/07 05:44:09;;;;;;;15.70;5.93;;;;;;;13.49;100.00;99289.56;4485505;31;20113;-77
2023/10/07 05:46:37;;;;;;;11.43;5.47;;;;;;;13.66;100.00;99275.66;4485379;31;20473;-77
2023/10/07 05:49:05;;;;;;;14.32;5.10;;;;;;;13.89;100.00;99283.19;4485391;32;20112;-76
2023/10/07 05:51:34;;;;;;;12.98;5.10;;;;;;;14.09;100.00;99286.53;4485384;31;20161;-76
2023/10/07 05:54:03;;;;;;;13.23;5.55;;;;;;;14.22;100.00;99294.09;4475716;31;20100;-76
2023/10/07 05:56:30;;;;;;;14.55;5.15;;;;;;;14.39;100.00;99292.47;4469593;32;20119;-76
2023/10/07 05:58:57;;;;;;;14.32;4.80;;;;;;;14.45;100.00;99302.41;4469844;32;20111;-77
2023/10/07 06:01:25;;;;;;;13.43;4.70;;;;;;;14.41;100.00;99294.97;4469748;32;20137;-76
2023/10/07 06:03:52;;;;;;;10.57;4.80;;;;;;;14.53;100.00;99293.75;4468513;32;20093;-76
2023/10/07 06:06:20;;;;;;;8.70;4.28;;;;;;;14.65;100.00;99289.97;4469847;32;20097;-76
2023/10/07 06:08:48;;;;;;;12.18;4.32;;;;;;;14.65;100.00;99297.88;4469828;32;20491;-77
2023/10/07 06:11:17;;;;;;;12.40;5.20;;;;;;;14.67;100.00;99295.94;4469559;32;20549;-76
2023/10/07 06:13:44;;;;;;;9.60;4.65;;;;;;;14.69;100.00;99299.22;4469478;32;20106;-76
2023/10/07 06:16:13;;;;;;;13.48;5.15;;;;;;;14.70;100.00;99306.19;4477208;32;20101;-76
2023/10/07 06:18:42;;;;;;;12.63;5.20;;;;;;;14.70;100.00;99307.97;4485276;31;20092;-76
2023/10/07 06:21:28;;;;;;;11.27;5.50;;;;;;;14.69;100.00;99301.88;4485249;31;20108;-76
2023/10/07 06:23:58;;;;;;;12.63;5.15;;;;;;;14.68;100.00;99308.13;4485393;32;20096;-76
2023/10/07 06:26:31;;;;;;;9.98;5.00;;;;;;;14.82;100.00;99305.94;4485478;31;20142;-76
2023/10/07 06:29:06;;;;;;;16.58;5.62;;;;;;;14.95;100.00;99303.75;4485437;31;20114;-77
2023/10/07 06:31:35;;;;;;;21.80;5.60;;;;;;;14.88;100.00;99313.25;4485064;31;20148;-77
2023/10/07 06:34:11;;;;;;;11.85;6.12;;;;;;;14.81;100.00;99315.66;4485074;31;20100;-76
2023/10/07 06:36:40;;;;;;;11.60;6.12;;;;;;;14.82;100.00;99313.84;4485153;32;20088;-77
2023/10/07 06:39:08;;;;;;;10.27;5.30;;;;;;;14.81;100.00;99317.47;4485340;32;20092;-77
2023/10/07 06:41:36;;;;;;;13.48;5.10;;;;;;;14.84;100.00;99315.37;4484884;31;20114;-76
2023/10/07 06:44:04;;;;;;;12.13;4.90;;;;;;;14.92;100.00;99316.41;4485142;31;20119;-77
2023/10/07 06:46:42;;;;;;;14.43;5.32;;;;;;;14.95;99.93;99318.75;4484933;31;20135;-77
2023/10/07 06:49:16;;;;;;;15.07;5.50;;;;;;;14.99;99.79;99320.94;4485405;31;20111;-77
2023/10/07 06:51:45;;;;;;;14.27;5.37;;;;;;;15.01;100.00;99328.69;4485365;31;20080;-77
2023/10/07 06:54:14;;;;;;;11.00;5.12;;;;;;;14.99;99.92;99328.84;4475126;31;20100;-77
2023/10/07 06:56:41;;;;;;;13.98;5.07;;;;;;;15.06;100.00;99331.69;4469453;32;20119;-77
2023/10/07 06:59:10;;;;;;;9.02;4.40;;;;;;;15.09;100.00;99318.19;4469583;32;20105;-76
2023/10/07 07:04:19;;;;;;;10.25;4.72;;;;;;;15.10;99.08;99329.59;4468846;32;20409;-77
2023/10/07 07:06:57;;;;;;;10.43;5.10;;;;;;;14.94;98.85;99312.63;4469486;32;20107;-77
2023/10/07 07:09:41;;;;;;;11.07;4.90;;;;;;;15.04;99.39;99320.47;4469389;32;20492;-76
2023/10/07 07:12:11;;;;;;;13.60;5.03;;;;;;;15.09;99.05;99315.56;4469312;32;20093;-76
2023/10/07 07:14:53;;;;;;;10.15;5.00;;;;;;;15.14;98.98;99325.66;4469410;32;20130;-77
2023/10/07 07:17:30;;;;;;;8.55;4.65;;;;;;;15.32;98.84;99315.91;4484182;32;20575;-77
2023/10/07 07:22:45;;;;;;;9.48;5.07;;;;;;;15.61;96.29;99314.78;4484629;31;20160;-77
2023/10/07 07:27:51;;;;;;;9.60;4.50;;;;;;;15.77;95.40;99328.09;4484682;31;20088;-77
2023/10/07 07:30:27;;;;;;;11.20;4.85;;;;;;;15.72;94.54;99333.00;4484760;31;20643;-76
2023/10/07 07:32:59;;;;;;;9.25;4.68;;;;;;;15.85;94.47;99326.50;4484646;32;20107;-76
2023/10/07 07:35:39;;;;;;;12.35;4.82;;;;;;;15.90;94.17;99338.25;4484671;32;20084;-77
2023/10/07 07:38:29;;;;;;;12.95;5.62;;;;;;;16.15;93.54;99335.72;4484719;31;20084;-77
2023/10/07 07:41:05;;;;;;;14.60;4.85;;;;;;;16.21;93.25;99336.91;4484692;31;20119;-76
2023/10/07 07:43:39;;;;;;;10.10;5.12;;;;;;;16.19;92.00;99338.87;4484669;31;20103;-77
2023/10/07 07:46:18;;;;;;;9.98;4.78;;;;;;;16.09;92.47;99345.13;4484660;32;20072;-77
2023/10/07 07:48:50;;;;;;;9.93;5.03;;;;;;;16.19;92.47;99344.16;4484899;31;20080;-77
2023/10/07 07:51:18;;;;;;;12.02;4.65;;;;;;;16.52;91.09;99341.62;4484686;32;20164;-76
2023/10/07 07:53:45;;;;;;;13.35;6.05;;;;;;;16.48;91.10;99339.28;4477673;31;20115;-76
2023/10/07 07:56:18;;;;;;;9.98;4.72;;;;;;;16.32;91.54;99328.66;4469036;32;20156;-77
2023/10/07 07:58:47;;;;;;;13.62;4.85;;;;;;;16.31;92.53;99334.97;4469135;32;20614;-76
2023/10/07 08:01:22;;;;;;;11.12;4.93;;;;;;;16.43;91.94;99331.03;4469011;32;20153;-77
2023/10/07 08:03:50;;;;;;;14.10;5.40;;;;;;;16.61;91.41;99328.25;4469095;32;20149;-77
2023/10/07 08:06:21;;;;;;;9.23;5.07;;;;;;;16.84;90.61;99325.00;4469073;32;20104;-77
2023/10/07 08:08:50;;;;;;;12.10;4.60;;;;;;;16.80;91.88;99327.12;4468909;32;20100;-77
2023/10/07 08:11:18;;;;;;;11.73;5.18;;;;;;;17.11;90.15;99330.97;4468831;32;20154;-77
2023/10/07 08:13:48;;;;;;;9.52;4.68;;;;;;;17.27;88.62;99336.25;4469025;32;20092;-77
2023/10/07 08:16:20;;;;;;;10.82;5.82;;;;;;;17.38;87.87;99329.81;4475971;32;20075;-77
2023/10/07 08:18:50;;;;;;;11.32;5.03;;;;;;;17.44;87.26;99333.59;4484321;31;20089;-77
2023/10/07 08:21:18;;;;;;;8.93;4.07;;;;;;;17.48;86.18;99334.94;4484152;31;20139;-76
2023/10/07 08:23:46;;;;;;;8.57;4.53;;;;;;;17.62;84.77;99325.47;4484603;31;20378;-77
2023/10/07 08:26:22;;;;;;;8.35;4.40;;;;;;;17.89;85.38;99333.03;4484250;31;20533;-77
2023/10/07 08:31:44;;;;;;;;;;;;;;;18.34;84.46;99329.91;4484234;31;20089;-77
2023/10/07 08:34:15;;;;;;;9.48;4.60;;;;;;;18.44;83.41;99327.88;4484141;31;19996;-77
2023/10/07 08:36:43;;;;;;;10.77;4.97;;;;;;;18.35;83.06;99331.53;4484265;31;20532;-77
2023/10/07 08:39:13;;;;;;;7.35;4.07;;;;;;;18.32;83.76;99326.56;4484135;32;20096;-77
2023/10/07 08:41:40;;;;;;;9.57;4.75;;;;;;;18.40;83.38;99323.91;4483931;31;20458;-77
2023/10/07 08:44:15;;;;;;;12.95;4.72;;;;;;;18.33;83.92;99317.63;4483816;31;20089;-77
2023/10/07 08:47:04;;;;;;;9.00;4.65;;;;;;;18.34;83.42;99319.28;4483831;31;20080;-77
2023/10/07 08:49:35;;;;;;;12.10;4.57;;;;;;;18.49;83.54;99317.53;4484032;31;20434;-77
2023/10/07 08:52:10;;;;;;;10.50;5.00;;;;;;;18.51;83.29;99320.03;4483669;31;20085;-77
2023/10/07 08:54:38;;;;;;;9.65;4.75;;;;;;;18.70;81.27;99316.06;4470834;31;20092;-77
2023/10/07 08:57:16;;;;;;;11.00;4.45;;;;;;;18.91;80.85;99311.00;4467968;32;20403;-77
2023/10/07 08:59:56;;;;;;;8.60;4.18;;;;;;;19.42;79.07;99320.19;4467314;32;20531;-77
2023/10/07 09:02:32;;;;;;;11.57;4.28;;;;;;;19.60;76.22;99325.16;4467797;32;20089;-77
2023/10/07 09:05:05;;;;;;;9.98;4.28;;;;;;;19.72;76.66;99323.69;4468258;32;20402;-77
2023/10/07 09:07:33;;;;;;;9.02;4.05;;;;;;;19.90;74.70;99315.37;4467751;32;20095;-77
2023/10/07 09:10:13;;;;;;;9.77;4.32;;;;;;;20.04;73.78;99316.38;4468001;32;20150;-77
2023/10/07 09:12:46;;;;;;;10.60;4.30;;;;;;;20.21;73.18;99312.50;4467615;32;20100;-77
2023/10/07 09:15:21;;;;;;;8.53;3.73;;;;;;;20.56;72.09;99315.37;4469220;32;20092;-77
2023/10/07 09:17:48;;;;;;;5.53;3.47;;;;;;;20.78;69.49;99303.94;4483349;31;20423;-77
2023/10/07 09:20:29;;;;;;;15.75;3.83;;;;;;;20.76;67.37;99319.25;4483529;31;20089;-77
2023/10/07 09:23:06;;;;;;;9.35;3.30;;;;;;;20.62;66.17;99303.16;4483302;31;20076;-77
2023/10/07 09:25:34;;;;;;;16.62;3.85;;;;;;;20.69;65.03;99304.03;4483294;32;20076;-77
2023/10/07 09:28:03;;;;;;;8.50;3.10;;;;;;;20.43;65.76;99298.44;4484655;32;20084;-77
2023/10/07 09:33:17;;;;;;;7.30;3.60;;;;;;;20.67;65.16;99306.09;4485513;32;20108;-77
2023/10/07 09:35:47;;;;;;;5.93;3.28;;;;;;;20.90;65.63;99300.56;4485651;31;20452;-77
2023/10/07 09:38:33;;;;;;;5.65;2.80;;;;;;;20.67;64.48;99300.75;4485653;31;20096;-77
2023/10/07 09:41:24;;;;;;;5.95;3.47;;;;;;;20.66;64.80;99304.44;4485772;31;20469;-77
2023/10/07 09:43:51;;;;;;;10.35;3.45;;;;;;;20.56;64.16;99303.91;4485582;31;20092;-77
2023/10/07 09:46:25;;;;;;;5.50;3.08;;;;;;;20.57;64.62;99289.56;4485429;32;20081;-77
2023/10/07 09:49:00;;;;;;;10.23;3.37;;;;;;;20.80;63.70;99288.59;4485555;31;20662;-77
2023/10/07 09:51:28;;;;;;;8.32;3.08;;;;;;;20.91;62.98;99285.41;4485783;31;20119;-77
2023/10/07 09:54:01;;;;;;;6.68;3.00;;;;;;;21.07;62.17;99298.47;4476869;32;20466;-77
2023/10/07 09:56:59;;;;;;;5.97;2.80;;;;;;;21.19;62.63;99295.28;4469687;32;20443;-77
2023/10/07 09:59:40;;;;;;;7.12;2.87;;;;;;;21.45;62.82;99299.97;4468670;32;20088;-77
2023/10/07 10:02:16;;;;;;;6.53;3.25;;;;;;;21.36;62.22;99285.97;4469734;32;20085;-77
2023/10/07 10:04:57;;;;;;;6.53;3.00;;;;;;;21.70;62.80;99291.56;4469940;32;20093;-76
2023/10/07 10:07:28;;;;;;;6.20;2.70;;;;;;;21.55;61.83;99291.66;4469942;32;20115;-77
2023/10/07 10:10:13;;;;;;;10.85;3.08;;;;;;;21.67;61.41;99299.94;4469839;32;20088;-77
2023/10/07 10:18:31;;;;;;;6.45;3.50;;;;;;;21.68;60.00;99266.91;4485432;31;20126;-77
2023/10/07 10:21:05;;;;;;;7.50;3.72;;;;;;;21.72;60.04;99268.97;4485324;31;20085;-77
2023/10/07 10:23:33;;;;;;;6.57;3.47;;;;;;;21.68;59.65;99262.41;4485286;31;20126;-77
2023/10/07 10:26:15;;;;;;;11.65;3.50;;;;;;;21.81;59.56;99264.31;4485400;31;20116;-77
2023/10/07 10:29:00;;;;;;;12.25;4.12;;;;;;;21.78;59.52;99265.53;4484029;32;20176;-77
2023/10/07 10:31:33;;;;;;;7.75;3.42;;;;;;;21.89;59.75;99258.81;4485350;31;20111;-77
2023/10/07 10:34:08;;;;;;;8.98;3.97;;;;;;;21.90;59.03;99254.31;4485098;31;20092;-76
2023/10/07 10:36:40;;;;;;;7.32;3.53;;;;;;;22.01;58.73;99259.06;4485584;31;20118;-77
2023/10/07 10:39:34;;;;;;;6.85;3.35;;;;;;;22.15;58.23;99254.63;4484432;31;20137;-77
2023/10/07 10:42:13;;;;;;;7.80;3.15;;;;;;;22.23;57.66;99259.75;4485265;31;20077;-77
2023/10/07 10:44:46;;;;;;;10.07;3.62;;;;;;;22.43;57.81;99256.34;4485096;31;20115;-77
2023/10/07 10:47:21;;;;;;;7.18;2.92;;;;;;;22.64;56.50;99239.34;4485267;32;20100;-77
2023/10/07 10:49:54;;;;;;;10.35;3.20;;;;;;;22.91;55.14;99253.53;4485059;31;20171;-77
2023/10/07 10:52:22;;;;;;;9.93;2.83;;;;;;;22.88;53.20;99243.25;4485132;31;20085;-77
2023/10/07 10:54:49;;;;;;;6.75;2.45;;;;;;;22.98;48.93;99237.47;4470803;31;20089;-77
2023/10/07 10:57:19;;;;;;;6.18;2.65;;;;;;;23.11;48.37;99242.84;4469497;32;20111;-77
2023/10/07 10:59:47;;;;;;;5.47;2.80;;;;;;;23.15;48.33;99235.22;4469320;32;20115;-77
2023/10/07 11:02:18;;;;;;;7.57;2.95;;;;;;;23.31;47.51;99225.97;4469529;32;20545;-77
2023/10/07 11:04:46;;;;;;;6.10;3.08;;;;;;;23.18;46.81;99227.62;4469405;32;20443;-77
2023/10/07 11:07:19;;;;;;;6.75;2.70;;;;;;;23.31;48.30;99225.97;4469673;32;20169;-77
2023/10/07 11:09:51;;;;;;;5.37;2.50;;;;;;;23.64;48.89;99219.72;4469217;32;20550;-77
2023/10/07 11:12:26;;;;;;;6.00;2.37;;;;;;;23.54;45.96;99204.09;4469454;32;20123;-77
2023/10/07 11:15:14;;;;;;;6.40;2.67;;;;;;;23.72;45.30;99219.47;4469294;32;20093;-77
2023/10/07 11:17:51;;;;;;;5.97;2.45;;;;;;;23.51;44.07;99209.84;4469296;32;20107;-77
2023/10/07 11:20:19;;;;;;;6.85;2.50;;;;;;;23.51;44.63;99202.69;4468958;32;20152;-77
2023/10/07 11:22:48;;;;;;;6.80;2.20;;;;;;;23.48;42.49;99210.28;4469308;32;20145;-77
2023/10/07 11:25:15;;;;;;;7.53;2.70;;;;;;;23.49;42.88;99202.06;4469064;32;20167;-77
2023/10/07 11:27:43;;;;;;;6.70;2.90;;;;;;;23.55;43.07;99211.91;4469137;32;20088;-77
2023/10/07 11:30:17;;;;;;;5.15;2.55;;;;;;;23.65;42.31;99208.78;4469195;32;20442;-77
2023/10/07 11:32:44;;;;;;;7.95;2.87;;;;;;;23.74;42.93;99204.03;4469174;32;20069;-77
2023/10/07 11:35:19;;;;;;;8.75;2.83;;;;;;;23.82;41.53;99189.59;4468840;32;20471;-77
2023/10/07 11:37:57;;;;;;;7.62;2.58;;;;;;;23.80;40.76;99197.84;4469184;32;20081;-77
2023/10/07 11:40:26;;;;;;;4.78;2.62;;;;;;;23.70;40.93;99190.25;4469161;32;20084;-77
2023/10/07 11:42:53;;;;;;;5.87;2.58;;;;;;;23.70;39.97;99195.59;4469005;32;20623;-77
2023/10/07 11:45:22;;;;;;;6.62;2.60;;;;;;;23.88;41.70;99192.25;4468636;32;20093;-77
2023/10/07 11:47:49;;;;;;;9.15;2.62;;;;;;;24.07;40.86;99195.88;4467696;32;20226;-77
2023/10/07 11:50:17;;;;;;;4.80;2.50;;;;;;;24.11;41.82;99188.22;4468677;32;20096;-77
2023/10/07 11:52:46;;;;;;;8.70;2.72;;;;;;;24.01;41.90;99183.34;4469756;32;20092;-77
2023/10/07 11:55:17;;;;;;;6.40;2.50;;;;;;;23.97;40.23;99174.09;4484475;32;20092;-77
2023/10/07 11:57:44;;;;;;;7.35;3.17;;;;;;;23.97;40.60;99173.25;4484982;31;20092;-77
2023/10/07 12:00:23;;;;;;;4.65;2.45;;;;;;;24.08;40.11;99177.94;4484615;31;20092;-77
2023/10/07 12:02:50;;;;;;;5.28;2.40;;;;;;;23.83;41.58;99175.16;4484628;31;20080;-77
2023/10/07 12:05:18;;;;;;;4.15;2.70;;;;;;;23.84;41.73;99172.28;4484519;31;20092;-77
2023/10/07 12:07:47;;;;;;;6.65;2.87;;;;;;;23.96;42.60;99179.66;4484388;31;20104;-77
2023/10/07 12:10:16;;;;;;;5.35;2.83;;;;;;;23.97;41.62;99173.25;4484523;31;20465;-77
2023/10/07 12:12:43;;;;;;;4.50;2.67;;;;;;;23.71;41.57;99175.84;4484326;31;20115;-77
2023/10/07 12:15:15;;;;;;;4.35;2.37;;;;;;;24.09;42.22;99166.22;4483146;31;20092;-77
2023/10/07 12:17:45;;;;;;;5.85;2.50;;;;;;;23.95;41.92;99168.13;4469016;32;20192;-77
2023/10/07 12:20:13;;;;;;;6.50;2.35;;;;;;;24.05;42.04;99165.81;4468502;32;20080;-77
2023/10/07 12:22:43;;;;;;;4.87;2.22;;;;;;;23.82;42.39;99169.00;4468661;32;20092;-77
2023/10/07 12:25:18;;;;;;;6.62;2.08;;;;;;;23.71;42.62;99175.03;4468556;32;20093;-77
2023/10/07 12:27:47;;;;;;;6.78;2.53;;;;;;;23.53;43.72;99171.19;4468649;32;20122;-77
2023/10/07 12:30:22;;;;;;;4.85;2.10;;;;;;;23.60;43.82;99165.81;4468389;32;20103;-77
2023/10/07 12:32:50;;;;;;;4.75;2.25;;;;;;;23.75;43.60;99168.22;4468360;32;20092;-77
2023/10/07 12:35:19;;;;;;;4.22;2.00;;;;;;;23.77;44.70;99155.47;4468311;32;20120;-77
2023/10/07 12:37:47;;;;;;;4.03;2.10;;;;;;;23.58;45.11;99164.38;4468223;32;20097;-77
2023/10/07 12:40:17;;;;;;;3.87;2.10;;;;;;;23.42;45.55;99168.34;4468295;32;20095;-77
2023/10/07 12:42:46;;;;;;;3.17;1.95;;;;;;;23.30;46.11;99169.00;4468334;32;20107;-77
2023/10/07 12:45:13;;;;;;;4.95;2.70;;;;;;;23.08;46.92;99157.72;4468194;32;20493;-77
2023/10/07 12:47:42;;;;;;;5.07;2.50;;;;;;;23.06;46.85;99154.44;4467921;32;20162;-76
2023/10/07 12:53:10;;;;;;;4.35;2.30;;;;;;;23.10;46.72;99154.87;4437309;32;20468;-77
2023/10/07 12:55:39;;;;;;;4.30;2.20;;;;;;;23.06;46.99;99157.13;4450161;32;20144;-77